sensor_id;sensor_type;location;lat;lon;timestamp;temperature;humidity
10530;DHT22;5313;48.834;9.228;2023-03-01T00:01:10;-0.10;99.90
10530;DHT22;5313;48.834;9.228;2023-03-01T00:03:36;-0.20;99.90
10530;DHT22;5313;48.834;9.228;2023-03-01T00:06:03;-0.20;99.90
10530;DHT22;5313;48.834;9.228;2023-03-01T00:08:29;-0.30;99.90
10530;DHT22;5313;48.834;9.228;2023-03-01T00:11:05;-0.30;99.90
10530;DHT22;5313;48.834;9.228;2023-03-01T00:13:31;-0.20;99.90
10530;DHT22;5313;48.834;9.228;2023-03-01T00:15:57;-0.20;99.90
10530;DHT22;5313;48.834;9.228;2023-03-01T00:18:22;-0.30;99.90
10530;DHT22;5313;48.834;9.228;2023-03-01T00:20:52;-0.40;99.90
10530;DHT22;5313;48.834;9.228;2023-03-01T00:23:19;-0.40;99.90
10530;DHT22;5313;48.834;9.228;2023-03-01T00:25:44;-0.40;99.90
10530;DHT22;5313;48.834;9.228;2023-03-01T00:28:10;-0.50;99.90
10530;DHT22;5313;48.834;9.228;2023-03-01T00:30:36;-0.60;99.90
10530;DHT22;5313;48.834;9.228;2023-03-01T00:33:01;-0.60;99.90
10530;DHT22;5313;48.834;9.228;2023-03-01T00:35:27;-0.40;99.90
10530;DHT22;5313;48.834;9.228;2023-03-01T00:37:52;-0.30;99.90
10530;DHT22;5313;48.834;9.228;2023-03-01T00:40:23;-0.30;99.90
10530;DHT22;5313;48.834;9.228;2023-03-01T00:42:49;-0.30;99.90
10530;DHT22;5313;48.834;9.228;2023-03-01T00:45:15;-0.30;99.90
10530;DHT22;5313;48.834;9.228;2023-03-01T00:47:40;-0.30;99.90
10530;DHT22;5313;48.834;9.228;2023-03-01T00:50:06;-0.40;99.90
10530;DHT22;5313;48.834;9.228;2023-03-01T00:52:32;-0.40;99.90
10530;DHT22;5313;48.834;9.228;2023-03-01T00:54:57;-0.30;99.90
10530;DHT22;5313;48.834;9.228;2023-03-01T00:57:23;-0.40;99.90
10530;DHT22;5313;48.834;9.228;2023-03-01T00:59:49;-0.40;99.90
10530;DHT22;5313;48.834;9.228;2023-03-01T01:02:15;-0.50;99.90
10530;DHT22;5313;48.834;9.228;2023-03-01T01:04:40;-0.60;99.90
10530;DHT22;5313;48.834;9.228;2023-03-01T01:07:06;-0.80;99.90
10530;DHT22;5313;48.834;9.228;2023-03-01T01:09:32;-2.00;99.90
10530;DHT22;5313;48.834;9.228;2023-03-01T01:11:57;-0.80;99.90
10530;DHT22;5313;48.834;9.228;2023-03-01T01:14:23;-0.90;99.90
10530;DHT22;5313;48.834;9.228;2023-03-01T01:16:48;-0.90;99.90
10530;DHT22;5313;48.834;9.228;2023-03-01T01:19:14;-0.90;99.90
10530;DHT22;5313;48.834;9.228;2023-03-01T01:21:40;-1.00;99.90
10530;DHT22;5313;48.834;9.228;2023-03-01T01:24:08;-1.00;99.90
10530;DHT22;5313;48.834;9.228;2023-03-01T01:26:34;-1.10;99.90
10530;DHT22;5313;48.834;9.228;2023-03-01T01:29:01;-0.90;99.90
10530;DHT22;5313;48.834;9.228;2023-03-01T01:31:28;-0.90;99.90
10530;DHT22;5313;48.834;9.228;2023-03-01T01:33:54;-0.90;99.90
10530;DHT22;5313;48.834;9.228;2023-03-01T01:36:20;-0.90;99.90
10530;DHT22;5313;48.834;9.228;2023-03-01T01:38:46;-1.00;99.90
10530;DHT22;5313;48.834;9.228;2023-03-01T01:41:13;-1.00;99.90
10530;DHT22;5313;48.834;9.228;2023-03-01T01:43:45;-1.00;99.90
10530;DHT22;5313;48.834;9.228;2023-03-01T01:46:31;-1.00;99.90
10530;DHT22;5313;48.834;9.228;2023-03-01T01:51:28;-1.00;99.90
10530;DHT22;5313;48.834;9.228;2023-03-01T01:54:06;-0.90;99.90
10530;DHT22;5313;48.834;9.228;2023-03-01T01:56:33;-0.80;99.90
10530;DHT22;5313;48.834;9.228;2023-03-01T01:58:58;-0.80;99.90
10530;DHT22;5313;48.834;9.228;2023-03-01T02:01:24;-0.70;99.90
10530;DHT22;5313;48.834;9.228;2023-03-01T02:03:50;-0.70;99.90
10530;DHT22;5313;48.834;9.228;2023-03-01T02:06:21;-0.50;99.90
10530;DHT22;5313;48.834;9.228;2023-03-01T02:08:49;-0.50;99.90
10530;DHT22;5313;48.834;9.228;2023-03-01T02:11:17;-0.30;99.90
10530;DHT22;5313;48.834;9.228;2023-03-01T02:13:43;-0.40;99.90
10530;DHT22;5313;48.834;9.228;2023-03-01T02:16:11;-0.50;99.90
10530;DHT22;5313;48.834;9.228;2023-03-01T02:18:39;-0.60;99.90
10530;DHT22;5313;48.834;9.228;2023-03-01T02:23:57;-0.70;99.90
10530;DHT22;5313;48.834;9.228;2023-03-01T02:27:02;-0.60;99.90
10530;DHT22;5313;48.834;9.228;2023-03-01T02:29:22;-0.50;99.90
10530;DHT22;5313;48.834;9.228;2023-03-01T02:31:49;-0.40;99.90
10530;DHT22;5313;48.834;9.228;2023-03-01T02:34:20;-0.40;99.90
10530;DHT22;5313;48.834;9.228;2023-03-01T02:36:49;-0.30;99.90
10530;DHT22;5313;48.834;9.228;2023-03-01T02:39:23;-0.30;99.90
10530;DHT22;5313;48.834;9.228;2023-03-01T02:41:52;-0.30;99.90
10530;DHT22;5313;48.834;9.228;2023-03-01T02:44:19;-0.30;99.90
10530;DHT22;5313;48.834;9.228;2023-03-01T02:46:48;-0.30;99.90
10530;DHT22;5313;48.834;9.228;2023-03-01T02:54:52;-0.30;99.90
10530;DHT22;5313;48.834;9.228;2023-03-01T02:57:21;-0.30;99.90
10530;DHT22;5313;48.834;9.228;2023-03-01T02:59:48;-0.20;99.90
10530;DHT22;5313;48.834;9.228;2023-03-01T03:02:20;-0.20;99.90
10530;DHT22;5313;48.834;9.228;2023-03-01T03:07:32;-0.10;99.90
10530;DHT22;5313;48.834;9.228;2023-03-01T03:09:59;-0.10;99.90
10530;DHT22;5313;48.834;9.228;2023-03-01T03:12:24;-0.10;99.90
10530;DHT22;5313;48.834;9.228;2023-03-01T03:14:50;0.00;99.90
10530;DHT22;5313;48.834;9.228;2023-03-01T03:17:15;0.00;99.90
10530;DHT22;5313;48.834;9.228;2023-03-01T03:19:41;0.00;99.90
10530;DHT22;5313;48.834;9.228;2023-03-01T03:22:06;0.00;99.90
10530;DHT22;5313;48.834;9.228;2023-03-01T03:24:34;0.10;99.90
10530;DHT22;5313;48.834;9.228;2023-03-01T03:27:04;0.10;99.90
10530;DHT22;5313;48.834;9.228;2023-03-01T03:29:29;0.10;99.90
10530;DHT22;5313;48.834;9.228;2023-03-01T03:31:55;0.20;99.90
10530;DHT22;5313;48.834;9.228;2023-03-01T03:34:20;0.20;99.90
10530;DHT22;5313;48.834;9.228;2023-03-01T03:36:46;0.20;99.90
10530;DHT22;5313;48.834;9.228;2023-03-01T03:39:12;0.10;99.90
10530;DHT22;5313;48.834;9.228;2023-03-01T03:41:37;0.20;99.90
10530;DHT22;5313;48.834;9.228;2023-03-01T03:44:03;0.20;99.90
10530;DHT22;5313;48.834;9.228;2023-03-01T03:46:28;0.20;99.90
10530;DHT22;5313;48.834;9.228;2023-03-01T03:48:54;0.20;99.90
10530;DHT22;5313;48.834;9.228;2023-03-01T03:51:19;0.20;99.90
10530;DHT22;5313;48.834;9.228;2023-03-01T03:53:45;0.30;99.90
10530;DHT22;5313;48.834;9.228;2023-03-01T03:56:11;0.30;99.90
10530;DHT22;5313;48.834;9.228;2023-03-01T03:58:37;0.20;99.90
10530;DHT22;5313;48.834;9.228;2023-03-01T04:01:03;0.20;99.90
10530;DHT22;5313;48.834;9.228;2023-03-01T04:03:29;0.20;99.90
10530;DHT22;5313;48.834;9.228;2023-03-01T04:05:58;0.30;99.90
10530;DHT22;5313;48.834;9.228;2023-03-01T04:08:24;0.20;99.90
10530;DHT22;5313;48.834;9.228;2023-03-01T04:10:51;0.20;99.90
10530;DHT22;5313;48.834;9.228;2023-03-01T04:13:20;0.40;99.90
10530;DHT22;5313;48.834;9.228;2023-03-01T04:15:49;0.40;99.90
10530;DHT22;5313;48.834;9.228;2023-03-01T04:18:15;0.40;99.90
10530;DHT22;5313;48.834;9.228;2023-03-01T04:20:42;0.30;99.90
10530;DHT22;5313;48.834;9.228;2023-03-01T04:23:11;0.30;99.90
10530;DHT22;5313;48.834;9.228;2023-03-01T04:25:50;0.40;99.90
10530;DHT22;5313;48.834;9.228;2023-03-01T04:28:24;0.30;99.90
10530;DHT22;5313;48.834;9.228;2023-03-01T04:30:50;0.30;99.90
10530;DHT22;5313;48.834;9.228;2023-03-01T04:33:16;0.40;99.90
10530;DHT22;5313;48.834;9.228;2023-03-01T04:35:42;0.40;99.90
10530;DHT22;5313;48.834;9.228;2023-03-01T04:38:08;0.40;99.90
10530;DHT22;5313;48.834;9.228;2023-03-01T04:40:34;0.50;99.90
10530;DHT22;5313;48.834;9.228;2023-03-01T04:43:01;0.40;99.90
10530;DHT22;5313;48.834;9.228;2023-03-01T04:45:27;0.50;99.90
10530;DHT22;5313;48.834;9.228;2023-03-01T04:47:53;0.40;99.90
10530;DHT22;5313;48.834;9.228;2023-03-01T04:50:19;0.40;99.90
10530;DHT22;5313;48.834;9.228;2023-03-01T04:52:46;0.50;99.90
10530;DHT22;5313;48.834;9.228;2023-03-01T04:55:13;0.40;99.90
10530;DHT22;5313;48.834;9.228;2023-03-01T04:57:39;0.30;99.90
10530;DHT22;5313;48.834;9.228;2023-03-01T05:00:06;0.40;99.90
10530;DHT22;5313;48.834;9.228;2023-03-01T05:02:52;0.40;99.90
10530;DHT22;5313;48.834;9.228;2023-03-01T05:05:22;0.40;99.90
10530;DHT22;5313;48.834;9.228;2023-03-01T05:07:58;0.30;99.90
10530;DHT22;5313;48.834;9.228;2023-03-01T05:10:24;0.40;99.90
10530;DHT22;5313;48.834;9.228;2023-03-01T05:12:50;0.30;99.90
10530;DHT22;5313;48.834;9.228;2023-03-01T05:15:17;0.30;99.90
10530;DHT22;5313;48.834;9.228;2023-03-01T05:17:43;0.30;99.90
10530;DHT22;5313;48.834;9.228;2023-03-01T05:20:09;0.30;99.90
10530;DHT22;5313;48.834;9.228;2023-03-01T05:22:35;0.40;99.90
10530;DHT22;5313;48.834;9.228;2023-03-01T05:25:01;0.30;99.90
10530;DHT22;5313;48.834;9.228;2023-03-01T05:27:27;0.40;99.90
10530;DHT22;5313;48.834;9.228;2023-03-01T05:29:52;0.40;99.90
10530;DHT22;5313;48.834;9.228;2023-03-01T05:32:18;0.40;99.90
10530;DHT22;5313;48.834;9.228;2023-03-01T05:34:43;0.40;99.90
10530;DHT22;5313;48.834;9.228;2023-03-01T05:37:11;0.40;99.90
10530;DHT22;5313;48.834;9.228;2023-03-01T05:39:37;0.40;99.90
10530;DHT22;5313;48.834;9.228;2023-03-01T05:42:03;0.40;99.90
10530;DHT22;5313;48.834;9.228;2023-03-01T05:44:29;0.40;99.90
10530;DHT22;5313;48.834;9.228;2023-03-01T05:46:55;0.40;99.90
10530;DHT22;5313;48.834;9.228;2023-03-01T05:49:21;0.40;99.90
10530;DHT22;5313;48.834;9.228;2023-03-01T05:51:50;0.40;99.90
10530;DHT22;5313;48.834;9.228;2023-03-01T05:54:17;0.50;99.90
10530;DHT22;5313;48.834;9.228;2023-03-01T05:56:43;0.40;99.90
10530;DHT22;5313;48.834;9.228;2023-03-01T05:59:08;0.50;99.90
10530;DHT22;5313;48.834;9.228;2023-03-01T06:01:35;0.40;99.90
10530;DHT22;5313;48.834;9.228;2023-03-01T06:04:01;0.50;99.90
10530;DHT22;5313;48.834;9.228;2023-03-01T06:06:27;0.50;99.90
10530;DHT22;5313;48.834;9.228;2023-03-01T06:08:53;0.50;99.90
10530;DHT22;5313;48.834;9.228;2023-03-01T06:11:19;0.60;99.90
10530;DHT22;5313;48.834;9.228;2023-03-01T06:13:46;0.60;99.90
10530;DHT22;5313;48.834;9.228;2023-03-01T06:16:13;0.60;99.90
10530;DHT22;5313;48.834;9.228;2023-03-01T06:18:38;0.60;99.90
10530;DHT22;5313;48.834;9.228;2023-03-01T06:21:05;0.50;99.90
10530;DHT22;5313;48.834;9.228;2023-03-01T06:23:31;0.50;99.90
10530;DHT22;5313;48.834;9.228;2023-03-01T06:25:57;0.50;99.90
10530;DHT22;5313;48.834;9.228;2023-03-01T06:28:23;0.50;99.90
10530;DHT22;5313;48.834;9.228;2023-03-01T06:30:50;0.40;99.90
10530;DHT22;5313;48.834;9.228;2023-03-01T06:33:17;0.40;99.90
10530;DHT22;5313;48.834;9.228;2023-03-01T06:35:44;0.40;99.90
10530;DHT22;5313;48.834;9.228;2023-03-01T06:38:09;0.40;99.90
10530;DHT22;5313;48.834;9.228;2023-03-01T06:40:35;0.30;99.90
10530;DHT22;5313;48.834;9.228;2023-03-01T06:43:01;0.20;99.90
10530;DHT22;5313;48.834;9.228;2023-03-01T06:45:27;0.20;99.90
10530;DHT22;5313;48.834;9.228;2023-03-01T06:47:57;0.40;99.90
10530;DHT22;5313;48.834;9.228;2023-03-01T06:50:26;0.40;99.90
10530;DHT22;5313;48.834;9.228;2023-03-01T06:52:55;0.40;99.90
10530;DHT22;5313;48.834;9.228;2023-03-01T06:55:21;0.50;99.90
10530;DHT22;5313;48.834;9.228;2023-03-01T06:57:47;0.50;99.90
10530;DHT22;5313;48.834;9.228;2023-03-01T07:00:13;0.40;99.90
10530;DHT22;5313;48.834;9.228;2023-03-01T07:02:39;0.40;99.90
10530;DHT22;5313;48.834;9.228;2023-03-01T07:05:04;0.30;99.90
10530;DHT22;5313;48.834;9.228;2023-03-01T07:07:30;0.30;99.90
10530;DHT22;5313;48.834;9.228;2023-03-01T07:09:55;0.20;99.90
10530;DHT22;5313;48.834;9.228;2023-03-01T07:12:21;0.20;99.90
10530;DHT22;5313;48.834;9.228;2023-03-01T07:14:46;0.10;99.90
10530;DHT22;5313;48.834;9.228;2023-03-01T07:17:12;0.10;99.90
10530;DHT22;5313;48.834;9.228;2023-03-01T07:19:37;0.20;99.90
10530;DHT22;5313;48.834;9.228;2023-03-01T07:22:03;0.40;99.90
10530;DHT22;5313;48.834;9.228;2023-03-01T07:24:29;0.50;99.90
10530;DHT22;5313;48.834;9.228;2023-03-01T07:26:55;0.40;99.90
10530;DHT22;5313;48.834;9.228;2023-03-01T07:29:20;0.50;99.90
10530;DHT22;5313;48.834;9.228;2023-03-01T07:31:46;0.40;99.90
10530;DHT22;5313;48.834;9.228;2023-03-01T07:34:11;0.50;99.90
10530;DHT22;5313;48.834;9.228;2023-03-01T07:36:37;0.40;99.90
10530;DHT22;5313;48.834;9.228;2023-03-01T07:39:04;0.40;99.90
10530;DHT22;5313;48.834;9.228;2023-03-01T07:41:30;0.50;99.90
10530;DHT22;5313;48.834;9.228;2023-03-01T07:43:55;0.60;99.90
10530;DHT22;5313;48.834;9.228;2023-03-01T07:46:21;0.50;99.90
10530;DHT22;5313;48.834;9.228;2023-03-01T07:48:47;0.60;99.90
10530;DHT22;5313;48.834;9.228;2023-03-01T07:51:13;0.80;99.90
10530;DHT22;5313;48.834;9.228;2023-03-01T07:53:39;0.80;99.90
10530;DHT22;5313;48.834;9.228;2023-03-01T07:56:07;0.70;99.90
10530;DHT22;5313;48.834;9.228;2023-03-01T07:58:37;0.70;99.90
10530;DHT22;5313;48.834;9.228;2023-03-01T08:01:07;0.70;99.90
10530;DHT22;5313;48.834;9.228;2023-03-01T08:03:34;0.80;99.90
10530;DHT22;5313;48.834;9.228;2023-03-01T08:06:01;0.80;99.90
10530;DHT22;5313;48.834;9.228;2023-03-01T08:08:27;0.90;99.90
10530;DHT22;5313;48.834;9.228;2023-03-01T08:10:52;1.00;99.90
10530;DHT22;5313;48.834;9.228;2023-03-01T08:13:21;1.00;99.90
10530;DHT22;5313;48.834;9.228;2023-03-01T08:15:48;1.00;99.90
10530;DHT22;5313;48.834;9.228;2023-03-01T08:18:14;1.10;99.90
10530;DHT22;5313;48.834;9.228;2023-03-01T08:20:40;1.20;99.90
10530;DHT22;5313;48.834;9.228;2023-03-01T08:23:05;1.20;99.90
10530;DHT22;5313;48.834;9.228;2023-03-01T08:25:31;1.10;99.90
10530;DHT22;5313;48.834;9.228;2023-03-01T08:27:56;1.10;99.90
10530;DHT22;5313;48.834;9.228;2023-03-01T08:30:22;1.00;99.90
10530;DHT22;5313;48.834;9.228;2023-03-01T08:32:49;1.20;99.90
10530;DHT22;5313;48.834;9.228;2023-03-01T08:35:15;1.30;99.90
10530;DHT22;5313;48.834;9.228;2023-03-01T08:37:41;1.20;99.90
10530;DHT22;5313;48.834;9.228;2023-03-01T08:40:07;1.40;99.90
10530;DHT22;5313;48.834;9.228;2023-03-01T08:42:33;1.40;99.90
10530;DHT22;5313;48.834;9.228;2023-03-01T08:44:58;1.60;99.90
10530;DHT22;5313;48.834;9.228;2023-03-01T08:47:24;1.80;99.90
10530;DHT22;5313;48.834;9.228;2023-03-01T08:49:50;1.80;99.90
10530;DHT22;5313;48.834;9.228;2023-03-01T08:52:16;1.90;99.90
10530;DHT22;5313;48.834;9.228;2023-03-01T08:54:41;2.00;99.90
10530;DHT22;5313;48.834;9.228;2023-03-01T08:57:07;1.90;99.90
10530;DHT22;5313;48.834;9.228;2023-03-01T08:59:34;2.10;99.90
10530;DHT22;5313;48.834;9.228;2023-03-01T09:02:03;2.40;99.90
10530;DHT22;5313;48.834;9.228;2023-03-01T09:04:29;2.50;99.90
10530;DHT22;5313;48.834;9.228;2023-03-01T09:06:55;2.60;99.90
10530;DHT22;5313;48.834;9.228;2023-03-01T09:09:20;2.70;99.90
10530;DHT22;5313;48.834;9.228;2023-03-01T09:11:46;2.80;99.90
10530;DHT22;5313;48.834;9.228;2023-03-01T09:14:12;2.60;99.90
10530;DHT22;5313;48.834;9.228;2023-03-01T09:16:38;2.60;99.90
10530;DHT22;5313;48.834;9.228;2023-03-01T09:19:05;2.60;99.90
10530;DHT22;5313;48.834;9.228;2023-03-01T09:21:31;2.70;99.90
10530;DHT22;5313;48.834;9.228;2023-03-01T09:23:57;2.90;99.90
10530;DHT22;5313;48.834;9.228;2023-03-01T09:26:23;3.20;99.90
10530;DHT22;5313;48.834;9.228;2023-03-01T09:28:51;3.10;99.90
10530;DHT22;5313;48.834;9.228;2023-03-01T09:31:19;3.20;99.90
10530;DHT22;5313;48.834;9.228;2023-03-01T09:33:49;3.10;99.90
10530;DHT22;5313;48.834;9.228;2023-03-01T09:36:18;3.20;99.90
10530;DHT22;5313;48.834;9.228;2023-03-01T09:38:44;3.30;99.90
10530;DHT22;5313;48.834;9.228;2023-03-01T09:44:03;3.50;99.90
10530;DHT22;5313;48.834;9.228;2023-03-01T09:46:34;3.50;99.90
10530;DHT22;5313;48.834;9.228;2023-03-01T09:49:06;3.60;99.90
10530;DHT22;5313;48.834;9.228;2023-03-01T09:51:35;3.70;99.90
10530;DHT22;5313;48.834;9.228;2023-03-01T09:54:03;3.90;99.90
10530;DHT22;5313;48.834;9.228;2023-03-01T10:00:05;4.50;99.90
10530;DHT22;5313;48.834;9.228;2023-03-01T10:10:36;4.50;99.90
10530;DHT22;5313;48.834;9.228;2023-03-01T10:15:44;5.20;99.90
10530;DHT22;5313;48.834;9.228;2023-03-01T10:18:17;5.40;99.90
10530;DHT22;5313;48.834;9.228;2023-03-01T10:20:56;5.50;99.90
10530;DHT22;5313;48.834;9.228;2023-03-01T10:23:26;5.20;99.90
10530;DHT22;5313;48.834;9.228;2023-03-01T10:31:22;5.90;99.90
10530;DHT22;5313;48.834;9.228;2023-03-01T10:33:48;6.10;99.90
10530;DHT22;5313;48.834;9.228;2023-03-01T10:36:18;6.20;99.90
10530;DHT22;5313;48.834;9.228;2023-03-01T10:38:56;6.60;99.90
10530;DHT22;5313;48.834;9.228;2023-03-01T10:41:23;6.80;99.90
10530;DHT22;5313;48.834;9.228;2023-03-01T10:43:52;6.50;99.90
10530;DHT22;5313;48.834;9.228;2023-03-01T10:46:35;6.60;99.90
10530;DHT22;5313;48.834;9.228;2023-03-01T10:49:10;6.80;99.90
10530;DHT22;5313;48.834;9.228;2023-03-01T10:51:42;6.90;99.90
10530;DHT22;5313;48.834;9.228;2023-03-01T10:54:29;7.00;99.90
10530;DHT22;5313;48.834;9.228;2023-03-01T10:56:57;7.00;99.90
10530;DHT22;5313;48.834;9.228;2023-03-01T10:59:30;7.20;99.90
10530;DHT22;5313;48.834;9.228;2023-03-01T11:04:46;6.90;99.90
10530;DHT22;5313;48.834;9.228;2023-03-01T11:07:21;7.30;99.90
10530;DHT22;5313;48.834;9.228;2023-03-01T11:09:46;7.00;99.90
10530;DHT22;5313;48.834;9.228;2023-03-01T11:12:16;7.10;99.90
10530;DHT22;5313;48.834;9.228;2023-03-01T11:14:53;7.60;99.90
10530;DHT22;5313;48.834;9.228;2023-03-01T11:17:31;7.80;99.90
10530;DHT22;5313;48.834;9.228;2023-03-01T11:20:19;7.80;99.90
10530;DHT22;5313;48.834;9.228;2023-03-01T11:22:55;8.00;99.90
10530;DHT22;5313;48.834;9.228;2023-03-01T11:25:26;8.10;99.90
10530;DHT22;5313;48.834;9.228;2023-03-01T11:27:54;8.20;99.90
10530;DHT22;5313;48.834;9.228;2023-03-01T11:33:05;8.30;99.90
10530;DHT22;5313;48.834;9.228;2023-03-01T11:35:49;8.50;99.90
10530;DHT22;5313;48.834;9.228;2023-03-01T11:38:22;8.90;99.80
10530;DHT22;5313;48.834;9.228;2023-03-01T11:40:52;8.40;99.80
10530;DHT22;5313;48.834;9.228;2023-03-01T11:43:33;8.20;99.90
10530;DHT22;5313;48.834;9.228;2023-03-01T11:49:02;8.30;99.80
10530;DHT22;5313;48.834;9.228;2023-03-01T11:54:30;8.90;98.20
10530;DHT22;5313;48.834;9.228;2023-03-01T11:57:11;9.00;99.60
10530;DHT22;5313;48.834;9.228;2023-03-01T11:59:52;9.50;97.80
10530;DHT22;5313;48.834;9.228;2023-03-01T12:03:13;9.40;97.70
10530;DHT22;5313;48.834;9.228;2023-03-01T12:08:30;9.30;95.80
10530;DHT22;5313;48.834;9.228;2023-03-01T12:11:23;9.30;97.00
10530;DHT22;5313;48.834;9.228;2023-03-01T12:26:20;10.50;93.00
10530;DHT22;5313;48.834;9.228;2023-03-01T12:28:53;10.10;93.40
10530;DHT22;5313;48.834;9.228;2023-03-01T12:37:29;8.90;95.30
10530;DHT22;5313;48.834;9.228;2023-03-01T12:40:29;9.00;95.60
10530;DHT22;5313;48.834;9.228;2023-03-01T12:47:07;9.40;95.90
10530;DHT22;5313;48.834;9.228;2023-03-01T12:49:24;9.60;95.40
10530;DHT22;5313;48.834;9.228;2023-03-01T12:52:02;9.80;94.50
10530;DHT22;5313;48.834;9.228;2023-03-01T12:54:36;9.40;94.80
10530;DHT22;5313;48.834;9.228;2023-03-01T12:59:49;9.80;94.20
10530;DHT22;5313;48.834;9.228;2023-03-01T13:02:27;9.50;94.20
10530;DHT22;5313;48.834;9.228;2023-03-01T13:10:34;10.00;93.50
10530;DHT22;5313;48.834;9.228;2023-03-01T13:13:14;10.10;93.60
10530;DHT22;5313;48.834;9.228;2023-03-01T13:15:43;9.80;93.50
10530;DHT22;5313;48.834;9.228;2023-03-01T13:28:46;9.80;93.80
10530;DHT22;5313;48.834;9.228;2023-03-01T13:33:51;9.70;94.70
10530;DHT22;5313;48.834;9.228;2023-03-01T13:39:03;9.90;94.60
10530;DHT22;5313;48.834;9.228;2023-03-01T13:49:57;9.50;96.50
10530;DHT22;5313;48.834;9.228;2023-03-01T13:52:40;9.70;96.00
10530;DHT22;5313;48.834;9.228;2023-03-01T13:57:39;9.40;96.10
10530;DHT22;5313;48.834;9.228;2023-03-01T14:00:05;9.20;96.80
10530;DHT22;5313;48.834;9.228;2023-03-01T14:02:31;9.00;97.60
10530;DHT22;5313;48.834;9.228;2023-03-01T14:04:58;8.90;98.00
10530;DHT22;5313;48.834;9.228;2023-03-01T14:07:26;9.10;98.40
10530;DHT22;5313;48.834;9.228;2023-03-01T14:10:00;9.10;97.90
10530;DHT22;5313;48.834;9.228;2023-03-01T14:12:55;8.80;98.80
10530;DHT22;5313;48.834;9.228;2023-03-01T14:15:35;8.90;99.10
10530;DHT22;5313;48.834;9.228;2023-03-01T14:18:21;8.70;99.20
10530;DHT22;5313;48.834;9.228;2023-03-01T14:20:51;9.10;99.90
10530;DHT22;5313;48.834;9.228;2023-03-01T14:23:22;9.40;99.90
10530;DHT22;5313;48.834;9.228;2023-03-01T14:25:48;9.00;99.90
10530;DHT22;5313;48.834;9.228;2023-03-01T14:30:48;9.20;99.90
10530;DHT22;5313;48.834;9.228;2023-03-01T14:33:35;8.80;99.90
10530;DHT22;5313;48.834;9.228;2023-03-01T14:36:09;8.50;99.90
10530;DHT22;5313;48.834;9.228;2023-03-01T14:38:46;8.60;99.90
10530;DHT22;5313;48.834;9.228;2023-03-01T14:41:24;8.50;99.90
10530;DHT22;5313;48.834;9.228;2023-03-01T14:46:26;8.60;99.90
10530;DHT22;5313;48.834;9.228;2023-03-01T14:48:55;8.60;99.90
10530;DHT22;5313;48.834;9.228;2023-03-01T14:51:23;8.50;99.90
10530;DHT22;5313;48.834;9.228;2023-03-01T14:53:49;8.30;99.90
10530;DHT22;5313;48.834;9.228;2023-03-01T14:56:16;8.30;99.90
10530;DHT22;5313;48.834;9.228;2023-03-01T14:58:45;8.20;99.90
10530;DHT22;5313;48.834;9.228;2023-03-01T15:01:15;8.10;99.90
10530;DHT22;5313;48.834;9.228;2023-03-01T15:03:44;8.00;99.90
10530;DHT22;5313;48.834;9.228;2023-03-01T15:06:10;8.10;99.90
10530;DHT22;5313;48.834;9.228;2023-03-01T15:08:42;8.00;99.90
10530;DHT22;5313;48.834;9.228;2023-03-01T15:13:51;8.10;99.90
10530;DHT22;5313;48.834;9.228;2023-03-01T15:16:19;8.00;99.90
10530;DHT22;5313;48.834;9.228;2023-03-01T15:18:49;8.00;99.90
10530;DHT22;5313;48.834;9.228;2023-03-01T15:21:25;7.90;99.90
10530;DHT22;5313;48.834;9.228;2023-03-01T15:23:55;8.00;99.90
10530;DHT22;5313;48.834;9.228;2023-03-01T15:26:35;8.00;99.90
10530;DHT22;5313;48.834;9.228;2023-03-01T15:29:02;7.80;99.90
10530;DHT22;5313;48.834;9.228;2023-03-01T15:31:31;7.90;99.90
10530;DHT22;5313;48.834;9.228;2023-03-01T15:34:24;7.90;99.90
10530;DHT22;5313;48.834;9.228;2023-03-01T15:36:52;7.90;99.90
10530;DHT22;5313;48.834;9.228;2023-03-01T15:42:05;7.90;99.90
10530;DHT22;5313;48.834;9.228;2023-03-01T15:44:36;8.00;99.90
10530;DHT22;5313;48.834;9.228;2023-03-01T15:47:30;8.00;99.90
10530;DHT22;5313;48.834;9.228;2023-03-01T15:49:58;7.90;99.90
10530;DHT22;5313;48.834;9.228;2023-03-01T15:52:27;7.90;99.90
10530;DHT22;5313;48.834;9.228;2023-03-01T15:54:58;7.80;99.90
10530;DHT22;5313;48.834;9.228;2023-03-01T15:57:24;7.80;99.90
10530;DHT22;5313;48.834;9.228;2023-03-01T15:59:50;7.80;99.90
10530;DHT22;5313;48.834;9.228;2023-03-01T16:02:15;7.80;99.90
10530;DHT22;5313;48.834;9.228;2023-03-01T16:04:41;7.70;99.90
10530;DHT22;5313;48.834;9.228;2023-03-01T16:07:08;7.70;99.90
10530;DHT22;5313;48.834;9.228;2023-03-01T16:09:35;7.70;99.90
10530;DHT22;5313;48.834;9.228;2023-03-01T16:12:00;7.70;99.90
10530;DHT22;5313;48.834;9.228;2023-03-01T16:14:27;7.70;99.90
10530;DHT22;5313;48.834;9.228;2023-03-01T16:16:52;7.60;99.90
10530;DHT22;5313;48.834;9.228;2023-03-01T16:19:18;7.60;99.90
10530;DHT22;5313;48.834;9.228;2023-03-01T16:21:43;7.60;99.90
10530;DHT22;5313;48.834;9.228;2023-03-01T16:24:12;7.60;99.90
10530;DHT22;5313;48.834;9.228;2023-03-01T16:26:38;7.50;99.90
10530;DHT22;5313;48.834;9.228;2023-03-01T16:29:04;7.50;99.90
10530;DHT22;5313;48.834;9.228;2023-03-01T16:31:29;7.50;99.90
10530;DHT22;5313;48.834;9.228;2023-03-01T16:33:56;7.40;99.90
10530;DHT22;5313;48.834;9.228;2023-03-01T16:36:24;7.40;99.90
10530;DHT22;5313;48.834;9.228;2023-03-01T16:38:51;7.40;99.90
10530;DHT22;5313;48.834;9.228;2023-03-01T16:41:19;7.30;99.90
10530;DHT22;5313;48.834;9.228;2023-03-01T16:43:45;7.20;99.90
10530;DHT22;5313;48.834;9.228;2023-03-01T16:46:22;7.20;99.90
10530;DHT22;5313;48.834;9.228;2023-03-01T16:48:48;7.10;99.90
10530;DHT22;5313;48.834;9.228;2023-03-01T16:51:14;7.00;99.90
10530;DHT22;5313;48.834;9.228;2023-03-01T16:53:40;6.90;99.90
10530;DHT22;5313;48.834;9.228;2023-03-01T16:56:08;6.80;99.90
10530;DHT22;5313;48.834;9.228;2023-03-01T16:58:36;6.80;99.90
10530;DHT22;5313;48.834;9.228;2023-03-01T17:01:17;6.70;99.90
10530;DHT22;5313;48.834;9.228;2023-03-01T17:03:43;6.70;99.90
10530;DHT22;5313;48.834;9.228;2023-03-01T17:06:12;6.60;99.90
10530;DHT22;5313;48.834;9.228;2023-03-01T17:08:39;6.50;99.90
10530;DHT22;5313;48.834;9.228;2023-03-01T17:11:08;6.40;99.90
10530;DHT22;5313;48.834;9.228;2023-03-01T17:13:35;6.30;99.90
10530;DHT22;5313;48.834;9.228;2023-03-01T17:16:06;6.30;99.90
10530;DHT22;5313;48.834;9.228;2023-03-01T17:18:31;6.20;99.90
10530;DHT22;5313;48.834;9.228;2023-03-01T17:20:58;6.10;99.90
10530;DHT22;5313;48.834;9.228;2023-03-01T17:23:24;6.10;99.90
10530;DHT22;5313;48.834;9.228;2023-03-01T17:25:49;6.00;99.90
10530;DHT22;5313;48.834;9.228;2023-03-01T17:28:15;5.90;99.90
10530;DHT22;5313;48.834;9.228;2023-03-01T17:30:43;5.90;99.90
10530;DHT22;5313;48.834;9.228;2023-03-01T17:33:10;5.80;99.90
10530;DHT22;5313;48.834;9.228;2023-03-01T17:35:36;5.80;99.90
10530;DHT22;5313;48.834;9.228;2023-03-01T17:38:03;5.70;99.90
10530;DHT22;5313;48.834;9.228;2023-03-01T17:40:29;5.60;99.90
10530;DHT22;5313;48.834;9.228;2023-03-01T17:42:55;5.50;99.90
10530;DHT22;5313;48.834;9.228;2023-03-01T17:45:21;5.50;99.90
10530;DHT22;5313;48.834;9.228;2023-03-01T17:47:47;5.50;99.90
10530;DHT22;5313;48.834;9.228;2023-03-01T17:50:12;5.50;99.90
10530;DHT22;5313;48.834;9.228;2023-03-01T17:52:38;5.40;99.90
10530;DHT22;5313;48.834;9.228;2023-03-01T17:55:06;5.40;99.90
10530;DHT22;5313;48.834;9.228;2023-03-01T17:57:31;5.40;99.90
10530;DHT22;5313;48.834;9.228;2023-03-01T17:59:57;5.30;99.90
10530;DHT22;5313;48.834;9.228;2023-03-01T18:02:22;5.20;99.90
10530;DHT22;5313;48.834;9.228;2023-03-01T18:04:48;5.20;99.90
10530;DHT22;5313;48.834;9.228;2023-03-01T18:07:13;5.10;99.90